Time;durP1;ratioP1;P1;durP2;ratioP2;P2;SDS_P1;SDS_P2;PMS_P1;PMS_P2;Temp;Humidity;BMP_temperature;BMP_pressure;BME280_temperature;BME280_humidity;BME280_pressure;Samples;Min_cycle;Max_cycle;Signal;HPM_P1;HPM_P2
2024/04/10 00:02:17;;;;;;;16.23;3.47;;;;;;;9.22;100.00;101884.78;5439630;26;20284;-59
2024/04/10 00:04:45;;;;;;;14.18;2.95;;;;;;;9.08;100.00;101884.16;5441527;26;20240;-58
2024/04/10 00:07:11;;;;;;;11.68;3.15;;;;;;;9.12;100.00;101896.56;5442511;26;20240;-58
2024/04/10 00:09:37;;;;;;;10.52;3.28;;;;;;;9.24;100.00;101901.66;5421189;26;20233;-57
2024/04/10 00:12:03;;;;;;;13.75;4.05;;;;;;;9.15;100.00;101901.84;5444970;26;20292;-58
2024/04/10 00:14:28;;;;;;;10.48;3.47;;;;;;;9.22;100.00;101898.13;5403252;26;20669;-58
2024/04/10 00:16:54;;;;;;;14.90;3.08;;;;;;;9.16;100.00;101895.59;5386795;26;20238;-58
2024/04/10 00:19:20;;;;;;;25.05;4.03;;;;;;;9.31;100.00;101901.53;5409396;26;20237;-58
2024/04/10 00:21:47;;;;;;;14.73;4.28;;;;;;;9.23;100.00;101897.22;5391211;26;20310;-58
2024/04/10 00:24:14;;;;;;;18.58;4.47;;;;;;;9.39;100.00;101911.16;5408346;26;20394;-58
2024/04/10 00:26:39;;;;;;;19.67;4.85;;;;;;;9.39;100.00;101910.28;5391522;26;20242;-57
2024/04/10 00:29:04;;;;;;;17.83;4.88;;;;;;;9.20;100.00;101905.28;5410836;26;20291;-58
2024/04/10 00:31:30;;;;;;;23.65;5.88;;;;;;;9.24;100.00;101919.50;5424418;26;20237;-57
2024/04/10 00:33:55;;;;;;;23.30;5.55;;;;;;;9.31;100.00;101928.25;5446529;26;20236;-58
2024/04/10 00:36:21;;;;;;;16.05;4.43;;;;;;;9.39;100.00;101935.22;5400802;26;20275;-57
2024/04/10 00:38:46;;;;;;;22.50;5.78;;;;;;;9.49;100.00;101943.94;5422480;26;20640;-58
2024/04/10 00:41:12;;;;;;;14.38;5.03;;;;;;;9.53;100.00;101932.25;5391610;26;20285;-57
2024/04/10 00:43:38;;;;;;;26.63;5.32;;;;;;;9.46;100.00;101944.91;5388689;26;20347;-57
2024/04/10 00:46:10;;;;;;;22.48;5.45;;;;;;;9.57;100.00;101958.03;5399259;26;20292;-58
2024/04/10 00:48:39;;;;;;;24.13;5.68;;;;;;;9.58;100.00;101965.13;5421648;26;20233;-58
2024/04/10 00:51:09;;;;;;;19.35;4.80;;;;;;;9.68;100.00;101975.63;5399113;26;20233;-58
2024/04/10 00:53:35;;;;;;;25.65;6.20;;;;;;;9.59;100.00;101972.25;5400850;26;20785;-58
2024/04/10 00:56:03;;;;;;;25.50;6.05;;;;;;;9.61;100.00;101982.91;5411620;26;20276;-56
2024/04/10 00:58:31;;;;;;;25.65;6.30;;;;;;;9.44;100.00;101973.44;5394230;26;20241;-58
2024/04/10 01:00:56;;;;;;;16.92;4.63;;;;;;;9.82;100.00;101986.94;5370546;26;20242;-57
2024/04/10 01:03:22;;;;;;;20.67;6.03;;;;;;;9.76;100.00;101989.75;5396122;26;20276;-56
2024/04/10 01:06:09;;;;;;;23.50;5.38;;;;;;;9.42;100.00;101990.44;5425869;26;20277;-57
2024/04/10 01:08:36;;;;;;;15.80;4.75;;;;;;;9.80;100.00;101991.44;5431170;26;20408;-57
2024/04/10 01:11:03;;;;;;;24.67;5.32;;;;;;;9.62;100.00;102004.28;5439725;26;20225;-57
2024/04/10 01:13:29;;;;;;;28.40;5.50;;;;;;;9.88;100.00;102013.59;5424047;26;20283;-58
2024/04/10 01:15:55;;;;;;;19.77;5.15;;;;;;;10.02;100.00;102007.94;5426036;26;20232;-57
2024/04/10 01:18:21;;;;;;;22.25;5.65;;;;;;;9.76;100.00;102005.81;5427210;26;20237;-58
2024/04/10 01:20:48;;;;;;;21.58;5.15;;;;;;;9.89;100.00;102018.03;5420131;26;20292;-58
2024/04/10 01:23:14;;;;;;;22.35;6.05;;;;;;;9.72;100.00;102015.69;5409474;26;20284;-58
2024/04/10 01:25:40;;;;;;;21.48;5.38;;;;;;;9.93;100.00;102013.47;5418634;26;20280;-58
2024/04/10 01:28:05;;;;;;;27.75;5.10;;;;;;;9.85;100.00;102026.13;5420756;26;20271;-58
2024/04/10 01:30:31;;;;;;;23.75;6.03;;;;;;;9.68;100.00;102019.34;5416439;26;20680;-58
2024/04/10 01:32:56;;;;;;;25.58;6.00;;;;;;;9.44;100.00;102010.88;5405861;26;20233;-58
2024/04/10 01:35:22;;;;;;;17.02;5.13;;;;;;;9.42;100.00;102043.94;5424248;26;20620;-58
2024/04/10 01:37:47;;;;;;;23.17;5.30;;;;;;;9.33;100.00;102036.09;5411908;26;20340;-58
2024/04/10 01:40:13;;;;;;;19.67;5.25;;;;;;;9.19;100.00;102047.91;5416364;26;20771;-58
2024/04/10 01:42:43;;;;;;;28.30;5.88;;;;;;;9.48;100.00;102049.16;5406765;26;20279;-58
2024/04/10 01:45:08;;;;;;;21.05;6.18;;;;;;;9.68;100.00;102063.94;5411846;26;20342;-57
2024/04/10 01:47:34;;;;;;;21.20;5.97;;;;;;;9.81;100.00;102049.41;5423590;26;20602;-57
2024/04/10 01:49:59;;;;;;;31.73;5.90;;;;;;;9.53;100.00;102073.16;5423242;26;20286;-58
2024/04/10 01:52:24;;;;;;;20.38;5.35;;;;;;;9.43;100.00;102064.41;5412272;26;20690;-58
2024/04/10 01:54:52;;;;;;;22.67;5.57;;;;;;;9.55;100.00;102076.69;5405347;26;20238;-58
2024/04/10 01:57:17;;;;;;;33.08;6.90;;;;;;;9.53;100.00;102082.06;5409419;26;20249;-58
2024/04/10 01:59:42;;;;;;;21.95;5.05;;;;;;;9.75;100.00;102082.50;5422325;26;20314;-58
2024/04/10 02:02:08;;;;;;;20.98;5.00;;;;;;;9.87;100.00;102094.78;5413138;26;20279;-57
2024/04/10 02:04:34;;;;;;;30.05;5.95;;;;;;;9.64;100.00;102104.13;5405007;26;20246;-58
2024/04/10 02:07:00;;;;;;;26.13;5.70;;;;;;;9.75;100.00;102100.38;5413393;26;20234;-57
2024/04/10 02:09:25;;;;;;;17.67;5.07;;;;;;;9.60;100.00;102109.56;5428096;26;20321;-57
2024/04/10 02:11:50;;;;;;;21.38;5.70;;;;;;;9.62;100.00;102108.63;5430528;26;20232;-58
2024/04/10 02:14:16;;;;;;;32.90;6.03;;;;;;;9.79;100.00;102108.31;5407224;26;20700;-58
2024/04/10 02:16:43;;;;;;;19.00;5.07;;;;;;;9.51;100.00;102112.41;5410405;26;20237;-57
2024/04/10 02:19:09;;;;;;;20.02;5.25;;;;;;;9.65;100.00;102118.41;5407504;26;20241;-58
2024/04/10 02:21:34;;;;;;;25.35;5.70;;;;;;;9.88;100.00;102117.97;5422746;26;20233;-58
2024/04/10 02:24:00;;;;;;;34.65;5.95;;;;;;;9.68;100.00;102129.03;5423979;26;20232;-58
2024/04/10 02:26:25;;;;;;;23.60;5.32;;;;;;;9.45;100.00;102135.69;5425064;26;20237;-57
2024/04/10 02:28:51;;;;;;;22.85;4.97;;;;;;;9.67;100.00;102143.31;5425573;26;20264;-58
2024/04/10 02:31:16;;;;;;;20.17;5.28;;;;;;;9.43;100.00;102152.66;5425925;26;20319;-56
2024/04/10 02:33:42;;;;;;;19.63;4.88;;;;;;;9.72;100.00;102144.13;5407386;26;20342;-57
2024/04/10 02:36:08;;;;;;;19.33;4.82;;;;;;;9.61;100.00;102157.69;5449194;26;20235;-58
2024/04/10 02:38:34;;;;;;;32.53;6.20;;;;;;;9.26;100.00;102166.31;5439641;26;20248;-58
2024/04/10 02:41:00;;;;;;;22.65;6.03;;;;;;;9.41;100.00;102167.88;5416879;26;20288;-57
2024/04/10 02:43:25;;;;;;;24.25;5.43;;;;;;;9.38;100.00;102170.59;5409976;26;20584;-57
2024/04/10 02:46:05;;;;;;;25.42;5.75;;;;;;;9.49;100.00;102175.75;5391223;26;20276;-58
2024/04/10 02:48:31;;;;;;;21.38;5.80;;;;;;;9.47;100.00;102181.13;5389179;26;20584;-58
2024/04/10 02:50:57;;;;;;;30.33;5.65;;;;;;;9.42;100.00;102183.88;5423446;26;20225;-58
2024/04/10 02:53:22;;;;;;;24.73;5.90;;;;;;;9.27;100.00;102193.03;5424585;26;20240;-58
2024/04/10 02:55:49;;;;;;;16.27;4.60;;;;;;;9.51;100.00;102189.97;5431197;26;20228;-58
2024/04/10 02:58:15;;;;;;;21.02;5.32;;;;;;;9.17;100.00;102166.47;5432727;26;20542;-57
2024/04/10 03:00:50;;;;;;;21.90;5.72;;;;;;;9.23;100.00;102204.69;5410622;26;20377;-57
2024/04/10 03:03:16;;;;;;;19.38;4.43;;;;;;;9.56;100.00;102213.06;5387194;26;20237;-58
2024/04/10 03:05:46;;;;;;;17.75;4.93;;;;;;;9.85;99.72;102216.13;5399021;26;20271;-58
2024/04/10 03:08:11;;;;;;;16.92;4.82;;;;;;;9.62;99.88;102222.81;5398097;26;20277;-58
2024/04/10 03:10:37;;;;;;;21.65;5.07;;;;;;;9.27;100.00;102218.91;5410041;26;20234;-57
2024/04/10 03:13:04;;;;;;;20.20;5.68;;;;;;;9.22;100.00;102236.81;5406146;26;20669;-58
2024/04/10 03:15:29;;;;;;;27.10;6.03;;;;;;;9.28;100.00;102232.25;5382657;26;20739;-58
2024/04/10 03:17:55;;;;;;;21.17;6.13;;;;;;;9.30;100.00;102232.22;5385019;26;20277;-58
2024/04/10 03:20:21;;;;;;;18.20;5.80;;;;;;;9.21;100.00;102237.72;5397540;26;20789;-57
2024/04/10 03:22:46;;;;;;;21.40;6.07;;;;;;;9.50;99.85;102241.72;5400640;26;20234;-58
2024/04/10 03:25:12;;;;;;;20.10;6.47;;;;;;;9.25;100.00;102240.31;5411094;26;20234;-57
2024/04/10 03:27:37;;;;;;;24.27;5.18;;;;;;;9.09;100.00;102247.66;5390901;26;20284;-56
2024/04/10 03:30:03;;;;;;;22.35;5.72;;;;;;;9.09;100.00;102261.00;5391261;26;20290;-57
2024/04/10 03:32:30;;;;;;;16.70;4.38;;;;;;;9.12;100.00;102259.22;5392150;26;20358;-57
2024/04/10 03:34:55;;;;;;;23.70;4.72;;;;;;;9.10;100.00;102264.59;5414762;26;20234;-57
2024/04/10 03:37:21;;;;;;;20.05;4.60;;;;;;;9.18;100.00;102262.69;5392280;26;20280;-57
2024/04/10 03:39:46;;;;;;;26.55;5.00;;;;;;;9.36;100.00;102263.34;5415221;26;20299;-56
2024/04/10 03:42:12;;;;;;;16.52;4.68;;;;;;;9.30;100.00;102263.44;5392851;26;20585;-57
2024/04/10 03:44:38;;;;;;;28.02;6.45;;;;;;;9.24;100.00;102270.63;5403869;26;20280;-57
2024/04/10 03:47:04;;;;;;;26.35;4.65;;;;;;;8.81;100.00;102273.00;5428544;26;20288;-57
2024/04/10 03:49:29;;;;;;;19.88;4.45;;;;;;;9.21;100.00;102284.03;5429413;26;20232;-57
2024/04/10 03:51:54;;;;;;;24.98;5.47;;;;;;;8.92;100.00;102287.09;5426651;26;20681;-57
2024/04/10 03:54:20;;;;;;;24.38;5.97;;;;;;;8.94;100.00;102285.28;5424883;26;20225;-57
2024/04/10 03:56:45;;;;;;;21.13;5.10;;;;;;;8.99;100.00;102307.50;5400073;26;20720;-58
2024/04/10 03:59:11;;;;;;;19.42;5.50;;;;;;;8.92;100.00;102301.34;5399234;26;20240;-57
2024/04/10 04:01:36;;;;;;;18.60;5.07;;;;;;;8.83;100.00;102305.91;5422441;26;20248;-57
2024/04/10 04:04:05;;;;;;;22.85;4.82;;;;;;;8.87;100.00;102302.31;5424774;26;20240;-58
2024/04/10 04:06:30;;;;;;;24.23;5.20;;;;;;;9.18;99.31;102317.97;5424412;26;20305;-59
2024/04/10 04:08:55;;;;;;;18.65;5.45;;;;;;;9.10;100.00;102328.75;5408780;26;20232;-58
2024/04/10 04:11:21;;;;;;;22.35;5.03;;;;;;;9.10;100.00;102323.41;5435063;26;20337;-58
2024/04/10 04:13:47;;;;;;;22.00;5.18;;;;;;;9.24;99.74;102332.13;5398628;26;20236;-58
2024/04/10 04:16:12;;;;;;;21.17;4.82;;;;;;;9.01;99.21;102334.22;5422696;26;20296;-59
2024/04/10 04:18:37;;;;;;;21.80;6.03;;;;;;;9.12;98.89;102340.28;5422401;26;20237;-58
2024/04/10 04:21:03;;;;;;;19.67;4.38;;;;;;;8.93;100.00;102340.53;5399705;26;20238;-58
2024/04/10 04:23:29;;;;;;;27.63;4.32;;;;;;;8.61;100.00;102338.22;5384383;26;20238;-59
2024/04/10 04:25:54;;;;;;;18.95;4.55;;;;;;;8.93;100.00;102345.00;5388383;26;20634;-59
2024/04/10 04:28:20;;;;;;;19.83;5.72;;;;;;;8.99;99.63;102350.28;5420619;26;20237;-57
2024/04/10 04:30:47;;;;;;;22.67;3.85;;;;;;;9.15;98.51;102363.44;5419784;26;20249;-58
2024/04/10 04:33:13;;;;;;;28.10;5.05;;;;;;;8.76;100.00;102353.22;5385969;26;20238;-58
2024/04/10 04:35:38;;;;;;;18.40;5.07;;;;;;;8.87;100.00;102340.59;5408210;26;20329;-58
2024/04/10 04:38:04;;;;;;;12.68;3.40;;;;;;;8.86;100.00;102370.03;5396518;26;20257;-58
2024/04/10 04:40:30;;;;;;;21.80;5.07;;;;;;;9.00;99.27;102370.72;5396514;26;20242;-58
2024/04/10 04:42:59;;;;;;;23.52;5.07;;;;;;;8.91;99.38;102386.88;5389361;26;20288;-58
2024/04/10 04:45:25;;;;;;;24.23;4.75;;;;;;;8.86;99.31;102394.94;5407756;26;20269;-59
2024/04/10 04:47:50;;;;;;;26.33;4.57;;;;;;;8.72;100.00;102394.22;5402162;26;20296;-57
2024/04/10 04:50:16;;;;;;;25.75;6.32;;;;;;;9.06;99.56;102396.50;5428813;26;20229;-57
2024/04/10 04:52:42;;;;;;;19.30;5.60;;;;;;;9.16;98.18;102399.94;5402857;26;20237;-57
2024/04/10 04:55:08;;;;;;;21.38;4.40;;;;;;;9.00;97.97;102404.59;5425612;26;20275;-57
2024/04/10 04:57:34;;;;;;;20.05;3.63;;;;;;;8.46;100.00;102403.34;5424796;26;20232;-57
2024/04/10 04:59:59;;;;;;;17.95;4.57;;;;;;;9.08;100.00;102408.06;5422229;26;20783;-58
2024/04/10 05:02:25;;;;;;;21.10;4.78;;;;;;;9.03;99.44;102413.47;5441433;26;20236;-58
2024/04/10 05:04:54;;;;;;;11.25;3.55;;;;;;;9.07;99.06;102417.00;5420800;26;20757;-59
2024/04/10 05:07:20;;;;;;;16.70;4.00;;;;;;;9.32;97.19;102425.59;5419137;26;20245;-58
2024/04/10 05:09:52;;;;;;;20.40;4.72;;;;;;;9.10;97.30;102427.66;5442990;26;20240;-59
2024/04/10 05:12:17;;;;;;;15.77;3.72;;;;;;;9.18;97.34;102431.13;5384621;26;20242;-58
2024/04/10 05:14:50;;;;;;;23.08;5.15;;;;;;;9.42;95.74;102439.78;5388654;26;20234;-58
2024/04/10 05:17:16;;;;;;;12.25;3.75;;;;;;;9.38;95.81;102446.06;5422211;26;20600;-58
2024/04/10 05:19:42;;;;;;;13.35;3.80;;;;;;;9.35;95.69;102451.44;5424190;26;20283;-57
2024/04/10 05:22:07;;;;;;;17.55;4.22;;;;;;;9.24;96.23;102463.13;5424319;26;20291;-58
2024/04/10 05:24:33;;;;;;;17.25;3.85;;;;;;;9.17;97.28;102466.78;5397947;26;20241;-58
2024/04/10 05:26:59;;;;;;;16.10;3.72;;;;;;;9.61;94.18;102456.47;5419889;26;20336;-58
2024/04/10 05:29:25;;;;;;;14.88;4.07;;;;;;;9.54;94.20;102465.47;5392638;26;20641;-58
2024/04/10 05:31:50;;;;;;;14.18;4.35;;;;;;;9.53;94.70;102482.44;5388227;26;20246;-58
2024/04/10 05:34:16;;;;;;;16.83;4.57;;;;;;;9.28;95.68;102486.28;5394734;26;20730;-58
2024/04/10 05:36:41;;;;;;;19.48;4.25;;;;;;;9.55;95.44;102488.66;5419154;26;20280;-58
2024/04/10 05:39:07;;;;;;;17.85;3.97;;;;;;;9.43;95.35;102495.00;5398347;26;20237;-58
2024/04/10 05:41:32;;;;;;;13.55;3.38;;;;;;;9.63;94.59;102493.00;5419120;26;20236;-58
2024/04/10 05:43:57;;;;;;;15.48;3.63;;;;;;;9.39;96.82;102504.88;5417820;26;20428;-58
2024/04/10 05:46:26;;;;;;;19.05;4.20;;;;;;;9.45;96.40;102503.94;5403641;26;20836;-58
2024/04/10 05:48:51;;;;;;;20.05;4.55;;;;;;;9.46;95.76;102506.59;5397582;26;20295;-58
2024/04/10 05:51:17;;;;;;;19.30;4.32;;;;;;;9.31;97.01;102511.19;5410642;26;20229;-58
2024/04/10 05:53:42;;;;;;;22.25;3.78;;;;;;;9.35;96.67;102512.94;5398676;26;20242;-57
2024/04/10 05:56:07;;;;;;;19.15;3.58;;;;;;;9.15;98.05;102521.19;5406208;26;20629;-58
2024/04/10 05:58:35;;;;;;;14.10;3.80;;;;;;;9.68;96.53;102508.09;5400847;26;20283;-58
2024/04/10 06:01:07;;;;;;;25.60;3.63;;;;;;;9.76;95.59;102522.28;5409287;26;20253;-58
2024/04/10 06:04:56;;;;;;;21.08;4.10;;;;;;;9.76;95.55;102530.31;5521924;25;20586;-58
2024/04/10 06:07:21;;;;;;;17.40;4.88;;;;;;;9.45;96.99;102541.38;5498397;26;20301;-58
2024/04/10 06:09:54;;;;;;;23.92;3.78;;;;;;;9.62;97.64;102542.06;5514367;26;20234;-58
2024/04/10 06:12:20;;;;;;;14.95;4.85;;;;;;;10.02;95.35;102548.72;5493724;26;20314;-58
2024/04/10 06:14:45;;;;;;;14.98;3.80;;;;;;;10.17;93.67;102555.66;5512862;25;20273;-58
2024/04/10 06:17:10;;;;;;;26.98;4.25;;;;;;;9.76;94.04;102547.25;5510470;26;20246;-58
2024/04/10 06:19:36;;;;;;;16.20;3.25;;;;;;;9.88;94.07;102548.91;5512125;25;20230;-57
2024/04/10 06:22:01;;;;;;;14.35;3.83;;;;;;;9.94;93.58;102562.19;5488099;25;20231;-57
2024/04/10 06:24:27;;;;;;;21.20;3.83;;;;;;;9.79;93.87;102571.28;5512531;25;20599;-57
2024/04/10 06:26:52;;;;;;;17.10;2.72;;;;;;;9.52;93.80;102569.81;5512884;26;20238;-58
2024/04/10 06:29:18;;;;;;;13.07;3.08;;;;;;;9.73;92.95;102573.16;5513062;25;20628;-58
2024/04/10 06:31:43;;;;;;;15.85;3.65;;;;;;;9.81;92.88;102579.31;5512134;25;20288;-57
2024/04/10 06:34:09;;;;;;;18.88;3.85;;;;;;;9.85;92.62;102578.38;5499180;25;20243;-57
2024/04/10 06:36:34;;;;;;;18.42;2.97;;;;;;;9.85;93.81;102580.16;5499532;26;20266;-58
2024/04/10 06:38:59;;;;;;;20.52;3.42;;;;;;;9.99;93.59;102581.75;5497311;26;20247;-59
2024/04/10 06:41:25;;;;;;;15.82;3.10;;;;;;;9.87;93.14;102591.75;5477079;26;20712;-57
2024/04/10 06:43:50;;;;;;;20.92;3.88;;;;;;;9.96;91.95;102584.47;5477437;26;20355;-58
2024/04/10 06:46:17;;;;;;;17.75;3.28;;;;;;;10.05;91.61;102590.63;5478824;26;20232;-58
2024/04/10 06:48:44;;;;;;;15.25;3.65;;;;;;;10.40;90.25;102590.19;5499142;25;20825;-58
2024/04/10 06:51:10;;;;;;;15.20;2.78;;;;;;;10.33;90.08;102594.72;5478654;26;20235;-58
2024/04/10 06:53:35;;;;;;;14.95;3.53;;;;;;;10.43;89.79;102603.56;5495805;26;20235;-58
2024/04/10 06:56:02;;;;;;;14.60;3.08;;;;;;;10.21;88.78;102597.53;5499711;26;20281;-58
2024/04/10 06:58:29;;;;;;;16.98;3.47;;;;;;;10.12;89.37;102603.03;5483994;25;20244;-57
2024/04/10 07:01:04;;;;;;;15.68;3.10;;;;;;;10.61;87.58;102613.13;5489355;26;20238;-57
2024/04/10 07:03:34;;;;;;;14.32;2.75;;;;;;;10.76;84.94;102611.13;5490966;26;20781;-58
2024/04/10 07:06:04;;;;;;;16.38;3.25;;;;;;;10.13;87.64;102607.47;5482715;25;20376;-59
2024/04/10 07:08:30;;;;;;;18.17;3.38;;;;;;;9.91;88.60;102626.47;5475987;26;20235;-58
2024/04/10 07:10:56;;;;;;;12.35;3.10;;;;;;;10.11;89.31;102636.09;5493393;26;20715;-58
2024/04/10 07:13:23;;;;;;;11.73;2.83;;;;;;;10.37;88.78;102626.84;5504005;26;20247;-58
2024/04/10 07:15:58;;;;;;;20.42;2.90;;;;;;;10.59;90.13;102585.44;5429725;26;20247;-57
2024/04/10 07:18:24;;;;;;;11.13;2.78;;;;;;;11.05;86.75;102627.59;5490401;26;20285;-59
2024/04/10 07:21:04;;;;;;;14.45;3.25;;;;;;;11.41;86.35;102627.03;5474981;26;20228;-58
2024/04/10 07:23:30;;;;;;;14.35;2.40;;;;;;;11.78;81.28;102631.72;5458229;26;20240;-58
2024/04/10 07:26:07;;;;;;;20.13;2.50;;;;;;;11.78;79.62;102645.13;5459005;26;20270;-57
2024/04/10 07:28:32;;;;;;;10.90;3.00;;;;;;;12.05;78.82;102656.28;5427620;26;20274;-58
2024/04/10 07:30:58;;;;;;;17.77;2.50;;;;;;;12.22;79.43;102662.22;5458934;26;20231;-58
2024/04/10 07:33:23;;;;;;;11.20;2.33;;;;;;;11.67;78.67;102656.09;5458835;26;20625;-58
2024/04/10 07:35:49;;;;;;;13.30;2.85;;;;;;;11.65;77.64;102665.94;5458858;26;20240;-57
2024/04/10 07:38:15;;;;;;;15.27;2.35;;;;;;;11.58;78.97;102664.31;5458581;26;20282;-58
2024/04/10 07:40:41;;;;;;;12.75;2.65;;;;;;;11.73;79.51;102653.28;5470163;26;20244;-57
2024/04/10 07:43:06;;;;;;;11.38;2.90;;;;;;;12.07;79.08;102665.22;5473455;26;20231;-58
2024/04/10 07:45:31;;;;;;;12.95;2.28;;;;;;;11.96;78.07;102673.50;5459477;26;20270;-58
2024/04/10 07:48:00;;;;;;;9.93;2.58;;;;;;;11.78;77.80;102667.50;5468010;26;20236;-58
2024/04/10 07:50:25;;;;;;;11.30;2.70;;;;;;;11.59;78.14;102672.34;5467629;26;20634;-58
2024/04/10 07:52:51;;;;;;;13.45;2.75;;;;;;;10.94;79.77;102675.16;5459204;26;20235;-58
2024/04/10 07:55:16;;;;;;;17.90;2.70;;;;;;;11.30;80.32;102679.97;5461109;26;20231;-57
2024/04/10 07:57:41;;;;;;;10.90;2.47;;;;;;;11.66;78.26;102681.16;5471626;26;20270;-58
2024/04/10 08:00:08;;;;;;;11.65;3.15;;;;;;;11.42;79.48;102680.69;5468061;26;20232;-58
2024/04/10 08:02:35;;;;;;;14.30;3.00;;;;;;;11.29;80.45;102681.78;5462982;26;20287;-57
2024/04/10 08:05:00;;;;;;;25.65;3.28;;;;;;;11.05;83.29;102694.66;5461599;26;20278;-58
2024/04/10 08:07:25;;;;;;;17.55;4.93;;;;;;;11.20;86.48;102696.22;5474379;26;20234;-57
2024/04/10 08:09:51;;;;;;;18.63;3.47;;;;;;;12.02;88.07;102702.91;5453031;26;20232;-57
2024/04/10 08:12:16;;;;;;;13.18;3.25;;;;;;;12.30;81.64;102700.56;5460777;26;20283;-57
2024/04/10 08:14:42;;;;;;;10.88;2.38;;;;;;;12.42;77.18;102707.47;5461269;26;20327;-57
2024/04/10 08:17:07;;;;;;;10.90;1.95;;;;;;;12.59;75.93;102717.88;5460181;26;20279;-58
2024/04/10 08:19:32;;;;;;;13.18;2.85;;;;;;;12.87;77.08;102706.50;5427806;26;20244;-58
2024/04/10 08:21:58;;;;;;;17.42;2.95;;;;;;;13.33;76.59;102708.13;5463611;26;20243;-58
2024/04/10 08:24:23;;;;;;;9.98;2.30;;;;;;;13.51;73.55;102719.41;5454300;26;20282;-57
2024/04/10 08:26:48;;;;;;;14.18;1.92;;;;;;;13.58;73.57;102714.72;5466822;26;20555;-58
2024/04/10 08:29:14;;;;;;;13.10;2.60;;;;;;;13.20;72.47;102729.06;5397199;26;20291;-58
2024/04/10 08:31:40;;;;;;;17.35;2.67;;;;;;;13.17;73.62;102723.75;5460805;26;20239;-58
2024/04/10 08:34:05;;;;;;;9.45;2.13;;;;;;;13.36;71.01;102736.81;5475020;26;20596;-57
2024/04/10 08:36:32;;;;;;;7.07;2.28;;;;;;;13.05;71.66;102740.19;5448913;26;20244;-57
2024/04/10 08:38:57;;;;;;;11.50;2.65;;;;;;;13.12;71.84;102738.22;5460451;26;20705;-57
2024/04/10 08:41:23;;;;;;;9.73;2.63;;;;;;;13.50;68.94;102736.47;5463426;26;20232;-57
2024/04/10 08:43:50;;;;;;;12.32;2.97;;;;;;;13.45;69.35;102741.09;5465192;26;20232;-57
2024/04/10 08:46:17;;;;;;;8.38;2.50;;;;;;;13.62;69.21;102737.97;5455542;26;20233;-58
2024/04/10 08:48:44;;;;;;;16.63;3.20;;;;;;;13.44;70.04;102740.19;5471583;26;20303;-58
2024/04/10 08:51:14;;;;;;;8.32;2.70;;;;;;;13.99;68.81;102751.34;5458980;26;20239;-57
2024/04/10 08:53:41;;;;;;;14.05;4.50;;;;;;;14.35;67.80;102751.28;5460936;26;20279;-57
2024/04/10 08:56:07;;;;;;;11.60;2.50;;;;;;;13.83;67.49;102747.31;5488154;26;20301;-58
2024/04/10 08:58:32;;;;;;;14.30;2.20;;;;;;;14.33;67.02;102752.25;5478245;26;20283;-58
2024/04/10 09:00:59;;;;;;;6.75;1.90;;;;;;;13.98;66.74;102730.75;5486159;26;20234;-58
2024/04/10 09:03:25;;;;;;;11.18;2.92;;;;;;;14.52;65.57;102763.41;5473754;26;20283;-59
2024/04/10 09:05:50;;;;;;;15.80;3.22;;;;;;;14.43;64.68;102765.41;5464850;26;20242;-58
2024/04/10 09:08:15;;;;;;;11.85;2.30;;;;;;;14.34;64.11;102759.41;5475669;26;20270;-58
2024/04/10 09:10:41;;;;;;;9.68;2.05;;;;;;;15.04;65.46;102774.47;5461201;26;20232;-57
2024/04/10 09:13:12;;;;;;;8.43;1.90;;;;;;;15.86;62.24;102765.53;5486453;26;20289;-57
2024/04/10 09:15:37;;;;;;;15.00;2.47;;;;;;;16.04;60.25;102755.88;5469997;26;20252;-57
2024/04/10 09:18:04;;;;;;;9.55;2.13;;;;;;;15.10;60.88;102777.88;5463269;26;20290;-57
2024/04/10 09:20:30;;;;;;;14.13;2.47;;;;;;;15.22;62.62;102776.63;5460695;26;20770;-58
2024/04/10 09:23:06;;;;;;;11.77;2.60;;;;;;;14.83;60.68;102770.63;5463900;26;20278;-58
2024/04/10 09:25:35;;;;;;;15.57;2.70;;;;;;;14.60;60.99;102791.94;5444002;26;20278;-58
2024/04/10 09:28:05;;;;;;;10.27;2.05;;;;;;;14.21;62.62;102786.72;5415352;26;20347;-58
2024/04/10 09:30:34;;;;;;;8.65;2.50;;;;;;;14.51;62.24;102797.56;5355836;26;20242;-57
2024/04/10 09:33:01;;;;;;;12.88;1.90;;;;;;;15.05;60.22;102795.13;5339473;26;20278;-58
2024/04/10 09:35:27;;;;;;;11.50;2.35;;;;;;;14.88;59.64;102798.34;5343186;26;20544;-58
2024/04/10 09:37:55;;;;;;;6.53;2.35;;;;;;;14.86;61.38;102792.13;5343756;26;20243;-57
2024/04/10 09:40:23;;;;;;;6.30;1.60;;;;;;;14.24;64.79;102800.09;5302137;27;20244;-58
2024/04/10 09:42:49;;;;;;;11.77;2.17;;;;;;;15.13;61.50;102798.47;5337228;26;20717;-58
2024/04/10 09:45:17;;;;;;;12.95;2.08;;;;;;;14.02;63.76;102799.78;5328969;26;20300;-58
2024/04/10 09:47:45;;;;;;;10.18;2.22;;;;;;;13.88;63.52;102807.34;5350440;26;20246;-58
2024/04/10 09:50:17;;;;;;;6.13;1.70;;;;;;;14.62;64.14;102816.16;5328919;26;20242;-58
2024/04/10 09:52:44;;;;;;;11.02;2.70;;;;;;;14.75;62.42;102814.91;5326442;26;20315;-58
2024/04/10 09:55:11;;;;;;;10.13;2.30;;;;;;;15.15;59.22;102810.13;5339780;26;20235;-63
2024/04/10 09:57:37;;;;;;;11.23;2.35;;;;;;;15.03;59.81;102805.97;5317348;26;20236;-58
2024/04/10 10:00:02;;;;;;;9.02;2.42;;;;;;;15.70;58.76;102816.47;5336341;26;20763;-58
2024/04/10 10:02:28;;;;;;;14.00;2.28;;;;;;;16.43;58.39;102805.03;5334439;26;20243;-58
2024/04/10 10:04:53;;;;;;;11.70;2.63;;;;;;;16.54;56.30;102816.34;5350400;26;20243;-59
2024/04/10 10:07:23;;;;;;;11.65;1.90;;;;;;;16.37;56.55;102823.25;5329779;26;20572;-58
2024/04/10 10:09:50;;;;;;;12.50;3.20;;;;;;;16.77;57.03;102827.19;5341340;26;20298;-57
2024/04/10 10:12:26;;;;;;;12.30;2.15;;;;;;;17.11;56.70;102831.34;5350121;26;20243;-59
2024/04/10 10:14:51;;;;;;;7.22;1.65;;;;;;;17.35;53.82;102828.63;5332953;26;20247;-57
2024/04/10 10:17:24;;;;;;;8.40;1.85;;;;;;;17.21;54.11;102825.56;5350559;26;20795;-58
2024/04/10 10:19:49;;;;;;;8.48;1.73;;;;;;;17.36;52.46;102835.81;5345705;26;20246;-57
2024/04/10 10:22:15;;;;;;;9.27;2.15;;;;;;;17.24;53.54;102817.34;5331028;26;20348;-57
2024/04/10 10:24:40;;;;;;;5.93;1.63;;;;;;;16.90;50.48;102824.06;5342979;26;20372;-58
2024/04/10 10:27:05;;;;;;;8.88;2.38;;;;;;;16.82;54.57;102834.28;5349640;26;20279;-58
2024/04/10 10:29:31;;;;;;;7.53;1.63;;;;;;;16.88;52.13;102839.50;5331540;26;20255;-58
2024/04/10 10:32:07;;;;;;;9.70;2.10;;;;;;;16.45;53.19;102835.59;5338905;26;20239;-57
2024/04/10 10:34:33;;;;;;;12.38;2.78;;;;;;;16.09;54.11;102831.44;5349219;26;20250;-56
2024/04/10 10:37:06;;;;;;;8.50;2.00;;;;;;;16.03;53.87;102834.34;5349925;26;20306;-59
2024/04/10 10:39:32;;;;;;;10.05;1.85;;;;;;;15.83;56.53;102833.22;5341929;26;20292;-59
2024/04/10 10:42:02;;;;;;;5.55;1.88;;;;;;;15.87;56.36;102837.56;5347513;26;20303;-59
2024/04/10 10:44:27;;;;;;;9.32;1.83;;;;;;;15.75;54.34;102837.06;5347552;26;20274;-57
2024/04/10 10:46:56;;;;;;;7.80;1.70;;;;;;;15.52;55.18;102838.69;5327088;26;20240;-58
2024/04/10 10:49:25;;;;;;;8.57;2.25;;;;;;;16.22;56.07;102843.59;5336002;26;20250;-58
2024/04/10 10:51:51;;;;;;;6.45;1.55;;;;;;;15.43;55.67;102834.44;5345521;26;20244;-58
2024/04/10 10:54:17;;;;;;;7.82;2.00;;;;;;;15.45;57.56;102843.41;5352435;26;20243;-58
2024/04/10 10:56:43;;;;;;;7.50;1.40;;;;;;;15.34;55.78;102846.44;5352872;26;20243;-58
2024/04/10 10:59:09;;;;;;;10.18;1.98;;;;;;;15.56;54.80;102843.06;5349585;26;20244;-57
2024/04/10 11:01:34;;;;;;;7.72;1.40;;;;;;;16.14;54.83;102842.09;5349235;26;20247;-58
2024/04/10 11:04:10;;;;;;;7.45;1.80;;;;;;;16.33;53.68;102845.91;5338869;26;20282;-58
2024/04/10 11:06:35;;;;;;;5.32;1.58;;;;;;;16.49;52.53;102862.50;5351756;26;20353;-58
2024/04/10 11:09:10;;;;;;;7.97;1.60;;;;;;;16.45;54.78;102852.72;5351479;26;20251;-58
2024/04/10 11:11:39;;;;;;;7.72;1.77;;;;;;;16.41;53.58;102846.53;5349039;26;20238;-57
2024/04/10 11:14:04;;;;;;;9.77;1.70;;;;;;;16.45;51.03;102822.97;5333195;26;20356;-58
2024/04/10 11:16:34;;;;;;;9.40;1.63;;;;;;;16.50;50.89;102849.84;5349245;26;20247;-58
2024/04/10 11:19:00;;;;;;;4.78;1.42;;;;;;;16.40;49.79;102850.19;5335452;26;20251;-58